sensor_id;sensor_type;location;lat;lon;timestamp;temperature;humidity
13928;DHT22;7036;50.834;4.718;2023-06-22T00:00:08;27.30;52.80
13928;DHT22;7036;50.834;4.718;2023-06-22T00:02:35;27.30;52.80
13928;DHT22;7036;50.834;4.718;2023-06-22T00:05:02;27.30;52.80
13928;DHT22;7036;50.834;4.718;2023-06-22T00:07:29;27.30;52.80
13928;DHT22;7036;50.834;4.718;2023-06-22T00:09:59;27.30;52.80
13928;DHT22;7036;50.834;4.718;2023-06-22T00:12:28;27.30;52.80
13928;DHT22;7036;50.834;4.718;2023-06-22T00:14:55;27.30;52.80
13928;DHT22;7036;50.834;4.718;2023-06-22T00:17:23;27.30;52.80
13928;DHT22;7036;50.834;4.718;2023-06-22T00:19:49;27.30;52.80
13928;DHT22;7036;50.834;4.718;2023-06-22T00:22:17;27.30;52.90
13928;DHT22;7036;50.834;4.718;2023-06-22T00:24:44;27.30;52.90
13928;DHT22;7036;50.834;4.718;2023-06-22T00:27:10;27.30;52.90
13928;DHT22;7036;50.834;4.718;2023-06-22T00:29:38;27.30;52.60
13928;DHT22;7036;50.834;4.718;2023-06-22T00:32:05;27.30;52.90
13928;DHT22;7036;50.834;4.718;2023-06-22T00:34:32;27.30;52.90
13928;DHT22;7036;50.834;4.718;2023-06-22T00:36:59;27.30;52.90
13928;DHT22;7036;50.834;4.718;2023-06-22T00:39:26;27.30;52.90
13928;DHT22;7036;50.834;4.718;2023-06-22T00:41:53;27.30;53.00
13928;DHT22;7036;50.834;4.718;2023-06-22T00:44:20;27.30;52.90
13928;DHT22;7036;50.834;4.718;2023-06-22T00:46:47;27.30;52.90
13928;DHT22;7036;50.834;4.718;2023-06-22T00:49:14;27.20;52.80
13928;DHT22;7036;50.834;4.718;2023-06-22T00:51:41;27.20;52.90
13928;DHT22;7036;50.834;4.718;2023-06-22T00:54:07;27.30;52.90
13928;DHT22;7036;50.834;4.718;2023-06-22T00:56:34;27.20;52.90
13928;DHT22;7036;50.834;4.718;2023-06-22T00:59:01;27.20;52.80
13928;DHT22;7036;50.834;4.718;2023-06-22T01:01:28;27.20;52.80
13928;DHT22;7036;50.834;4.718;2023-06-22T01:03:55;27.20;52.90
13928;DHT22;7036;50.834;4.718;2023-06-22T01:06:32;27.20;52.90
13928;DHT22;7036;50.834;4.718;2023-06-22T01:09:15;27.20;52.90
13928;DHT22;7036;50.834;4.718;2023-06-22T01:11:54;27.20;52.90
13928;DHT22;7036;50.834;4.718;2023-06-22T01:14:24;27.20;53.00
13928;DHT22;7036;50.834;4.718;2023-06-22T01:16:48;27.20;52.90
13928;DHT22;7036;50.834;4.718;2023-06-22T01:19:43;27.20;52.90
13928;DHT22;7036;50.834;4.718;2023-06-22T01:22:06;27.20;52.90
13928;DHT22;7036;50.834;4.718;2023-06-22T01:24:48;27.20;52.90
13928;DHT22;7036;50.834;4.718;2023-06-22T01:27:24;27.20;52.90
13928;DHT22;7036;50.834;4.718;2023-06-22T01:29:44;27.20;52.90
13928;DHT22;7036;50.834;4.718;2023-06-22T01:32:11;27.20;53.00
13928;DHT22;7036;50.834;4.718;2023-06-22T01:34:38;27.20;53.00
13928;DHT22;7036;50.834;4.718;2023-06-22T01:37:05;27.20;53.00
13928;DHT22;7036;50.834;4.718;2023-06-22T01:39:32;27.20;53.00
13928;DHT22;7036;50.834;4.718;2023-06-22T01:41:59;27.20;53.00
13928;DHT22;7036;50.834;4.718;2023-06-22T01:44:25;27.20;53.00
13928;DHT22;7036;50.834;4.718;2023-06-22T01:46:52;27.20;53.00
13928;DHT22;7036;50.834;4.718;2023-06-22T01:49:19;27.20;53.70
13928;DHT22;7036;50.834;4.718;2023-06-22T01:51:46;27.20;53.00
13928;DHT22;7036;50.834;4.718;2023-06-22T01:54:13;27.10;53.10
13928;DHT22;7036;50.834;4.718;2023-06-22T01:56:40;27.10;53.00
13928;DHT22;7036;50.834;4.718;2023-06-22T01:59:25;27.10;53.00
13928;DHT22;7036;50.834;4.718;2023-06-22T02:01:57;27.10;53.00
13928;DHT22;7036;50.834;4.718;2023-06-22T02:04:24;27.10;53.20
13928;DHT22;7036;50.834;4.718;2023-06-22T02:06:49;27.10;53.10
13928;DHT22;7036;50.834;4.718;2023-06-22T02:09:17;27.10;53.00
13928;DHT22;7036;50.834;4.718;2023-06-22T02:11:44;27.20;53.70
13928;DHT22;7036;50.834;4.718;2023-06-22T02:14:10;27.10;53.00
13928;DHT22;7036;50.834;4.718;2023-06-22T02:16:37;27.10;53.00
13928;DHT22;7036;50.834;4.718;2023-06-22T02:19:04;27.10;53.00
13928;DHT22;7036;50.834;4.718;2023-06-22T02:21:30;27.10;53.00
13928;DHT22;7036;50.834;4.718;2023-06-22T02:23:58;27.10;53.00
13928;DHT22;7036;50.834;4.718;2023-06-22T02:26:27;27.10;53.10
13928;DHT22;7036;50.834;4.718;2023-06-22T02:28:54;27.10;53.10
13928;DHT22;7036;50.834;4.718;2023-06-22T02:31:21;27.10;53.10
13928;DHT22;7036;50.834;4.718;2023-06-22T02:33:50;27.10;53.10
13928;DHT22;7036;50.834;4.718;2023-06-22T02:36:16;27.10;53.10
13928;DHT22;7036;50.834;4.718;2023-06-22T02:38:43;27.10;53.10
13928;DHT22;7036;50.834;4.718;2023-06-22T02:41:10;27.10;53.10
13928;DHT22;7036;50.834;4.718;2023-06-22T02:43:37;27.10;53.10
13928;DHT22;7036;50.834;4.718;2023-06-22T02:46:04;27.10;53.80
13928;DHT22;7036;50.834;4.718;2023-06-22T02:48:31;27.10;53.10
13928;DHT22;7036;50.834;4.718;2023-06-22T02:50:58;27.10;53.20
13928;DHT22;7036;50.834;4.718;2023-06-22T02:53:25;27.10;53.10
13928;DHT22;7036;50.834;4.718;2023-06-22T02:55:52;27.10;53.20
13928;DHT22;7036;50.834;4.718;2023-06-22T02:58:19;27.10;53.20
13928;DHT22;7036;50.834;4.718;2023-06-22T03:00:46;27.00;53.00
13928;DHT22;7036;50.834;4.718;2023-06-22T03:03:13;27.10;53.20
13928;DHT22;7036;50.834;4.718;2023-06-22T03:05:40;27.00;53.00
13928;DHT22;7036;50.834;4.718;2023-06-22T03:08:07;27.10;53.10
13928;DHT22;7036;50.834;4.718;2023-06-22T03:10:33;27.10;53.20
13928;DHT22;7036;50.834;4.718;2023-06-22T03:13:01;27.00;53.10
13928;DHT22;7036;50.834;4.718;2023-06-22T03:15:27;27.10;53.10
13928;DHT22;7036;50.834;4.718;2023-06-22T03:17:54;27.00;53.10
13928;DHT22;7036;50.834;4.718;2023-06-22T03:20:21;27.00;53.10
13928;DHT22;7036;50.834;4.718;2023-06-22T03:22:48;27.00;53.10
13928;DHT22;7036;50.834;4.718;2023-06-22T03:25:15;27.00;53.10
13928;DHT22;7036;50.834;4.718;2023-06-22T03:27:42;27.10;53.20
13928;DHT22;7036;50.834;4.718;2023-06-22T03:30:10;27.00;53.10
13928;DHT22;7036;50.834;4.718;2023-06-22T03:32:36;27.00;53.10
13928;DHT22;7036;50.834;4.718;2023-06-22T03:35:03;27.00;53.60
13928;DHT22;7036;50.834;4.718;2023-06-22T03:37:30;27.00;53.10
13928;DHT22;7036;50.834;4.718;2023-06-22T03:39:57;27.00;53.10
13928;DHT22;7036;50.834;4.718;2023-06-22T03:42:24;27.00;53.10
13928;DHT22;7036;50.834;4.718;2023-06-22T03:44:51;27.00;53.10
13928;DHT22;7036;50.834;4.718;2023-06-22T03:47:18;27.00;53.10
13928;DHT22;7036;50.834;4.718;2023-06-22T03:49:45;27.00;53.10
13928;DHT22;7036;50.834;4.718;2023-06-22T03:52:12;27.00;53.10
13928;DHT22;7036;50.834;4.718;2023-06-22T03:54:39;27.00;53.10
13928;DHT22;7036;50.834;4.718;2023-06-22T03:57:06;27.00;53.20
13928;DHT22;7036;50.834;4.718;2023-06-22T03:59:33;27.00;53.20
13928;DHT22;7036;50.834;4.718;2023-06-22T04:01:59;27.00;53.20
13928;DHT22;7036;50.834;4.718;2023-06-22T04:04:26;27.00;53.20
13928;DHT22;7036;50.834;4.718;2023-06-22T04:06:53;27.00;53.20
13928;DHT22;7036;50.834;4.718;2023-06-22T04:09:20;27.00;53.20
13928;DHT22;7036;50.834;4.718;2023-06-22T04:11:47;27.00;53.20
13928;DHT22;7036;50.834;4.718;2023-06-22T04:14:14;27.00;53.20
13928;DHT22;7036;50.834;4.718;2023-06-22T04:16:41;27.00;53.20
13928;DHT22;7036;50.834;4.718;2023-06-22T04:19:08;27.00;53.20
13928;DHT22;7036;50.834;4.718;2023-06-22T04:21:35;27.00;53.20
13928;DHT22;7036;50.834;4.718;2023-06-22T04:24:02;27.00;53.20
13928;DHT22;7036;50.834;4.718;2023-06-22T04:26:29;27.00;53.20
13928;DHT22;7036;50.834;4.718;2023-06-22T04:28:56;27.00;53.20
13928;DHT22;7036;50.834;4.718;2023-06-22T04:31:23;27.00;53.20
13928;DHT22;7036;50.834;4.718;2023-06-22T04:33:49;27.00;53.20
13928;DHT22;7036;50.834;4.718;2023-06-22T04:36:16;27.00;53.20
13928;DHT22;7036;50.834;4.718;2023-06-22T04:38:43;27.00;53.20
13928;DHT22;7036;50.834;4.718;2023-06-22T04:41:10;27.00;53.20
13928;DHT22;7036;50.834;4.718;2023-06-22T04:43:37;27.00;53.80
13928;DHT22;7036;50.834;4.718;2023-06-22T04:46:05;26.90;53.60
13928;DHT22;7036;50.834;4.718;2023-06-22T04:48:31;27.00;53.20
13928;DHT22;7036;50.834;4.718;2023-06-22T04:51:01;27.00;53.30
13928;DHT22;7036;50.834;4.718;2023-06-22T04:53:28;27.00;53.20
13928;DHT22;7036;50.834;4.718;2023-06-22T04:55:55;26.90;53.20
13928;DHT22;7036;50.834;4.718;2023-06-22T04:58:22;26.90;53.30
13928;DHT22;7036;50.834;4.718;2023-06-22T05:00:49;26.90;53.30
13928;DHT22;7036;50.834;4.718;2023-06-22T05:03:15;26.90;53.20
13928;DHT22;7036;50.834;4.718;2023-06-22T05:05:42;26.90;53.30
13928;DHT22;7036;50.834;4.718;2023-06-22T05:08:09;26.90;53.20
13928;DHT22;7036;50.834;4.718;2023-06-22T05:10:36;27.00;53.30
13928;DHT22;7036;50.834;4.718;2023-06-22T05:13:03;27.00;53.30
13928;DHT22;7036;50.834;4.718;2023-06-22T05:15:30;26.90;53.30
13928;DHT22;7036;50.834;4.718;2023-06-22T05:17:58;26.90;53.30
13928;DHT22;7036;50.834;4.718;2023-06-22T05:20:25;26.90;53.30
13928;DHT22;7036;50.834;4.718;2023-06-22T05:22:52;26.90;53.30
13928;DHT22;7036;50.834;4.718;2023-06-22T05:25:18;26.90;53.30
13928;DHT22;7036;50.834;4.718;2023-06-22T05:27:45;26.90;53.30
13928;DHT22;7036;50.834;4.718;2023-06-22T05:30:12;26.90;53.30
13928;DHT22;7036;50.834;4.718;2023-06-22T05:32:39;26.90;53.30
13928;DHT22;7036;50.834;4.718;2023-06-22T05:35:06;26.90;53.30
13928;DHT22;7036;50.834;4.718;2023-06-22T05:37:34;26.90;53.90
13928;DHT22;7036;50.834;4.718;2023-06-22T05:40:01;26.90;53.40
13928;DHT22;7036;50.834;4.718;2023-06-22T05:42:28;26.90;53.30
13928;DHT22;7036;50.834;4.718;2023-06-22T05:44:55;26.90;53.30
13928;DHT22;7036;50.834;4.718;2023-06-22T05:47:22;26.90;53.30
13928;DHT22;7036;50.834;4.718;2023-06-22T05:49:48;27.00;53.40
13928;DHT22;7036;50.834;4.718;2023-06-22T05:52:15;26.90;53.30
13928;DHT22;7036;50.834;4.718;2023-06-22T05:54:43;26.90;53.30
13928;DHT22;7036;50.834;4.718;2023-06-22T05:57:09;26.90;53.40
13928;DHT22;7036;50.834;4.718;2023-06-22T05:59:36;26.90;53.30
13928;DHT22;7036;50.834;4.718;2023-06-22T06:02:03;26.90;53.40
13928;DHT22;7036;50.834;4.718;2023-06-22T06:04:30;26.90;53.40
13928;DHT22;7036;50.834;4.718;2023-06-22T06:06:57;26.90;53.30
13928;DHT22;7036;50.834;4.718;2023-06-22T06:09:24;26.90;53.40
13928;DHT22;7036;50.834;4.718;2023-06-22T06:11:51;26.90;53.40
13928;DHT22;7036;50.834;4.718;2023-06-22T06:14:18;26.90;53.40
13928;DHT22;7036;50.834;4.718;2023-06-22T06:16:44;26.90;53.40
13928;DHT22;7036;50.834;4.718;2023-06-22T06:19:11;26.90;53.40
13928;DHT22;7036;50.834;4.718;2023-06-22T06:21:38;26.90;53.40
13928;DHT22;7036;50.834;4.718;2023-06-22T06:24:08;26.90;53.40
13928;DHT22;7036;50.834;4.718;2023-06-22T06:26:35;26.90;53.40
13928;DHT22;7036;50.834;4.718;2023-06-22T06:29:03;26.90;53.40
13928;DHT22;7036;50.834;4.718;2023-06-22T06:31:29;26.90;53.40
13928;DHT22;7036;50.834;4.718;2023-06-22T06:33:56;26.90;53.40
13928;DHT22;7036;50.834;4.718;2023-06-22T06:36:23;26.90;53.40
13928;DHT22;7036;50.834;4.718;2023-06-22T06:38:50;26.90;53.40
13928;DHT22;7036;50.834;4.718;2023-06-22T06:41:17;26.90;53.40
13928;DHT22;7036;50.834;4.718;2023-06-22T06:43:44;26.90;53.40
13928;DHT22;7036;50.834;4.718;2023-06-22T06:46:11;26.90;53.40
13928;DHT22;7036;50.834;4.718;2023-06-22T06:48:38;26.90;53.40
13928;DHT22;7036;50.834;4.718;2023-06-22T06:51:05;26.90;53.40
13928;DHT22;7036;50.834;4.718;2023-06-22T06:53:31;26.90;54.60
13928;DHT22;7036;50.834;4.718;2023-06-22T06:55:58;27.00;53.40
13928;DHT22;7036;50.834;4.718;2023-06-22T06:58:25;27.00;53.40
13928;DHT22;7036;50.834;4.718;2023-06-22T07:00:52;27.00;53.40
13928;DHT22;7036;50.834;4.718;2023-06-22T07:03:19;26.90;54.50
13928;DHT22;7036;50.834;4.718;2023-06-22T07:05:46;27.00;53.40
13928;DHT22;7036;50.834;4.718;2023-06-22T07:08:13;27.00;53.40
13928;DHT22;7036;50.834;4.718;2023-06-22T07:10:40;27.00;53.40
13928;DHT22;7036;50.834;4.718;2023-06-22T07:13:07;27.00;53.40
13928;DHT22;7036;50.834;4.718;2023-06-22T07:15:35;27.00;53.40
13928;DHT22;7036;50.834;4.718;2023-06-22T07:18:02;27.00;53.30
13928;DHT22;7036;50.834;4.718;2023-06-22T07:20:29;27.00;53.30
13928;DHT22;7036;50.834;4.718;2023-06-22T07:22:55;27.00;53.30
13928;DHT22;7036;50.834;4.718;2023-06-22T07:25:23;27.00;53.70
13928;DHT22;7036;50.834;4.718;2023-06-22T07:30:23;26.90;53.60
13928;DHT22;7036;50.834;4.718;2023-06-22T07:32:51;26.90;53.50
13928;DHT22;7036;50.834;4.718;2023-06-22T07:35:18;26.90;53.50
13928;DHT22;7036;50.834;4.718;2023-06-22T07:37:45;26.90;53.40
13928;DHT22;7036;50.834;4.718;2023-06-22T07:40:12;26.90;53.40
13928;DHT22;7036;50.834;4.718;2023-06-22T07:42:40;26.90;53.40
13928;DHT22;7036;50.834;4.718;2023-06-22T07:45:07;26.90;53.40
13928;DHT22;7036;50.834;4.718;2023-06-22T07:47:34;26.80;53.20
13928;DHT22;7036;50.834;4.718;2023-06-22T07:50:02;26.80;53.20
13928;DHT22;7036;50.834;4.718;2023-06-22T07:52:29;26.90;53.20
13928;DHT22;7036;50.834;4.718;2023-06-22T07:54:55;26.90;53.30
13928;DHT22;7036;50.834;4.718;2023-06-22T07:57:22;26.90;53.30
13928;DHT22;7036;50.834;4.718;2023-06-22T07:59:49;26.90;53.30
13928;DHT22;7036;50.834;4.718;2023-06-22T08:02:16;26.90;53.30
13928;DHT22;7036;50.834;4.718;2023-06-22T08:04:44;26.90;53.30
13928;DHT22;7036;50.834;4.718;2023-06-22T08:07:11;27.00;53.40
13928;DHT22;7036;50.834;4.718;2023-06-22T08:09:38;27.00;53.50
13928;DHT22;7036;50.834;4.718;2023-06-22T08:12:05;26.90;53.40
13928;DHT22;7036;50.834;4.718;2023-06-22T08:14:32;26.90;53.50
13928;DHT22;7036;50.834;4.718;2023-06-22T08:16:59;26.50;56.40
13928;DHT22;7036;50.834;4.718;2023-06-22T08:19:26;26.90;53.30
13928;DHT22;7036;50.834;4.718;2023-06-22T08:21:53;26.90;53.30
13928;DHT22;7036;50.834;4.718;2023-06-22T08:24:20;26.90;53.40
13928;DHT22;7036;50.834;4.718;2023-06-22T08:26:49;26.90;53.40
13928;DHT22;7036;50.834;4.718;2023-06-22T08:29:14;26.90;53.30
13928;DHT22;7036;50.834;4.718;2023-06-22T08:31:41;26.90;53.40
13928;DHT22;7036;50.834;4.718;2023-06-22T08:34:08;26.90;53.30
13928;DHT22;7036;50.834;4.718;2023-06-22T08:36:35;26.90;53.30
13928;DHT22;7036;50.834;4.718;2023-06-22T08:39:02;26.90;53.90
13928;DHT22;7036;50.834;4.718;2023-06-22T08:41:29;26.90;53.30
13928;DHT22;7036;50.834;4.718;2023-06-22T08:43:56;26.90;53.30
13928;DHT22;7036;50.834;4.718;2023-06-22T08:46:23;26.90;53.40
13928;DHT22;7036;50.834;4.718;2023-06-22T08:48:50;26.90;53.40
13928;DHT22;7036;50.834;4.718;2023-06-22T08:51:16;26.90;53.40
13928;DHT22;7036;50.834;4.718;2023-06-22T08:53:43;26.90;53.40
13928;DHT22;7036;50.834;4.718;2023-06-22T08:56:10;26.80;53.30
13928;DHT22;7036;50.834;4.718;2023-06-22T08:58:37;26.80;53.40
13928;DHT22;7036;50.834;4.718;2023-06-22T09:01:04;26.80;53.30
13928;DHT22;7036;50.834;4.718;2023-06-22T09:03:31;26.80;53.40
13928;DHT22;7036;50.834;4.718;2023-06-22T09:05:58;26.80;53.40
13928;DHT22;7036;50.834;4.718;2023-06-22T09:08:25;26.70;53.60
13928;DHT22;7036;50.834;4.718;2023-06-22T09:10:52;26.70;53.60
13928;DHT22;7036;50.834;4.718;2023-06-22T09:13:19;26.70;53.60
13928;DHT22;7036;50.834;4.718;2023-06-22T09:15:46;26.80;53.80
13928;DHT22;7036;50.834;4.718;2023-06-22T09:18:13;26.80;53.80
13928;DHT22;7036;50.834;4.718;2023-06-22T09:20:40;26.70;53.80
13928;DHT22;7036;50.834;4.718;2023-06-22T09:23:07;26.80;53.70
13928;DHT22;7036;50.834;4.718;2023-06-22T09:25:34;26.80;53.70
13928;DHT22;7036;50.834;4.718;2023-06-22T09:28:01;26.80;53.80
13928;DHT22;7036;50.834;4.718;2023-06-22T09:30:28;26.80;53.80
13928;DHT22;7036;50.834;4.718;2023-06-22T09:32:55;26.80;53.80
13928;DHT22;7036;50.834;4.718;2023-06-22T09:35:22;26.80;53.80
13928;DHT22;7036;50.834;4.718;2023-06-22T09:37:49;26.80;53.90
13928;DHT22;7036;50.834;4.718;2023-06-22T09:40:15;26.80;53.80
13928;DHT22;7036;50.834;4.718;2023-06-22T09:42:42;26.80;53.90
13928;DHT22;7036;50.834;4.718;2023-06-22T09:45:09;26.80;53.90
13928;DHT22;7036;50.834;4.718;2023-06-22T09:47:37;26.80;56.00
13928;DHT22;7036;50.834;4.718;2023-06-22T09:50:05;26.80;54.00
13928;DHT22;7036;50.834;4.718;2023-06-22T09:52:32;26.90;53.90
13928;DHT22;7036;50.834;4.718;2023-06-22T09:54:58;26.80;54.20
13928;DHT22;7036;50.834;4.718;2023-06-22T09:57:25;26.90;54.30
13928;DHT22;7036;50.834;4.718;2023-06-22T09:59:52;26.90;54.50
13928;DHT22;7036;50.834;4.718;2023-06-22T10:02:19;26.90;54.70
13928;DHT22;7036;50.834;4.718;2023-06-22T10:04:46;26.90;56.20
13928;DHT22;7036;50.834;4.718;2023-06-22T10:07:13;26.80;56.90
13928;DHT22;7036;50.834;4.718;2023-06-22T10:09:40;26.80;57.40
13928;DHT22;7036;50.834;4.718;2023-06-22T10:12:07;26.70;58.60
13928;DHT22;7036;50.834;4.718;2023-06-22T10:14:35;26.90;64.10
13928;DHT22;7036;50.834;4.718;2023-06-22T10:17:02;26.60;63.00
13928;DHT22;7036;50.834;4.718;2023-06-22T10:19:28;26.60;58.60
13928;DHT22;7036;50.834;4.718;2023-06-22T10:21:55;26.50;58.30
13928;DHT22;7036;50.834;4.718;2023-06-22T10:24:23;26.60;58.00
13928;DHT22;7036;50.834;4.718;2023-06-22T10:26:49;26.60;57.90
13928;DHT22;7036;50.834;4.718;2023-06-22T10:29:16;26.60;58.00
13928;DHT22;7036;50.834;4.718;2023-06-22T10:31:43;26.60;60.60
13928;DHT22;7036;50.834;4.718;2023-06-22T10:34:10;26.60;59.20
13928;DHT22;7036;50.834;4.718;2023-06-22T10:36:38;26.60;57.60
13928;DHT22;7036;50.834;4.718;2023-06-22T10:39:05;26.60;57.70
13928;DHT22;7036;50.834;4.718;2023-06-22T10:41:31;26.60;57.40
13928;DHT22;7036;50.834;4.718;2023-06-22T10:43:58;26.60;57.40
13928;DHT22;7036;50.834;4.718;2023-06-22T10:46:25;26.60;57.30
13928;DHT22;7036;50.834;4.718;2023-06-22T10:48:52;26.60;57.40
13928;DHT22;7036;50.834;4.718;2023-06-22T10:51:19;26.60;57.30
13928;DHT22;7036;50.834;4.718;2023-06-22T10:53:47;26.70;57.50
13928;DHT22;7036;50.834;4.718;2023-06-22T10:56:13;26.60;57.50
13928;DHT22;7036;50.834;4.718;2023-06-22T10:58:40;26.70;57.50
13928;DHT22;7036;50.834;4.718;2023-06-22T11:01:07;26.60;57.70
13928;DHT22;7036;50.834;4.718;2023-06-22T11:03:34;26.70;58.00
13928;DHT22;7036;50.834;4.718;2023-06-22T11:06:02;26.70;58.30
13928;DHT22;7036;50.834;4.718;2023-06-22T11:08:28;26.70;58.20
13928;DHT22;7036;50.834;4.718;2023-06-22T11:10:55;26.70;58.40
13928;DHT22;7036;50.834;4.718;2023-06-22T11:13:22;26.70;58.40
13928;DHT22;7036;50.834;4.718;2023-06-22T11:15:49;26.60;58.40
13928;DHT22;7036;50.834;4.718;2023-06-22T11:18:16;26.60;58.60
13928;DHT22;7036;50.834;4.718;2023-06-22T11:20:43;26.60;58.50
13928;DHT22;7036;50.834;4.718;2023-06-22T11:23:10;26.60;58.60
13928;DHT22;7036;50.834;4.718;2023-06-22T11:25:37;26.60;58.80
13928;DHT22;7036;50.834;4.718;2023-06-22T11:28:05;26.60;59.20
13928;DHT22;7036;50.834;4.718;2023-06-22T11:30:31;26.60;59.10
13928;DHT22;7036;50.834;4.718;2023-06-22T11:32:58;26.60;59.20
13928;DHT22;7036;50.834;4.718;2023-06-22T11:35:25;26.60;59.10
13928;DHT22;7036;50.834;4.718;2023-06-22T11:37:52;26.60;59.00
13928;DHT22;7036;50.834;4.718;2023-06-22T11:40:19;26.70;59.30
13928;DHT22;7036;50.834;4.718;2023-06-22T11:42:46;26.70;59.30
13928;DHT22;7036;50.834;4.718;2023-06-22T11:45:14;26.70;59.40
13928;DHT22;7036;50.834;4.718;2023-06-22T11:47:42;26.70;61.40
13928;DHT22;7036;50.834;4.718;2023-06-22T11:50:08;26.70;59.40
13928;DHT22;7036;50.834;4.718;2023-06-22T11:52:35;26.70;59.20
13928;DHT22;7036;50.834;4.718;2023-06-22T11:55:03;26.60;59.40
13928;DHT22;7036;50.834;4.718;2023-06-22T11:57:29;26.60;59.50
13928;DHT22;7036;50.834;4.718;2023-06-22T11:59:56;26.60;59.40
13928;DHT22;7036;50.834;4.718;2023-06-22T12:02:23;26.60;63.20
13928;DHT22;7036;50.834;4.718;2023-06-22T12:04:50;26.60;61.70
13928;DHT22;7036;50.834;4.718;2023-06-22T12:07:17;26.50;59.50
13928;DHT22;7036;50.834;4.718;2023-06-22T12:09:44;26.50;59.60
13928;DHT22;7036;50.834;4.718;2023-06-22T12:12:11;26.50;59.70
13928;DHT22;7036;50.834;4.718;2023-06-22T12:14:38;26.50;61.10
13928;DHT22;7036;50.834;4.718;2023-06-22T12:17:05;26.50;59.40
13928;DHT22;7036;50.834;4.718;2023-06-22T12:19:32;26.50;59.40
13928;DHT22;7036;50.834;4.718;2023-06-22T12:21:59;26.50;59.40
13928;DHT22;7036;50.834;4.718;2023-06-22T12:24:25;26.50;59.50
13928;DHT22;7036;50.834;4.718;2023-06-22T12:26:52;26.50;59.50
13928;DHT22;7036;50.834;4.718;2023-06-22T12:29:19;26.50;59.50
13928;DHT22;7036;50.834;4.718;2023-06-22T12:31:46;26.50;59.70
13928;DHT22;7036;50.834;4.718;2023-06-22T12:34:13;26.50;59.70
13928;DHT22;7036;50.834;4.718;2023-06-22T12:36:40;26.50;59.70
13928;DHT22;7036;50.834;4.718;2023-06-22T12:39:07;26.50;59.80
13928;DHT22;7036;50.834;4.718;2023-06-22T12:41:35;26.40;59.80
13928;DHT22;7036;50.834;4.718;2023-06-22T12:44:02;26.40;59.90
13928;DHT22;7036;50.834;4.718;2023-06-22T12:46:29;26.40;59.90
13928;DHT22;7036;50.834;4.718;2023-06-22T12:48:55;26.40;59.80
13928;DHT22;7036;50.834;4.718;2023-06-22T12:51:22;26.40;59.90
13928;DHT22;7036;50.834;4.718;2023-06-22T12:53:49;26.40;59.90
13928;DHT22;7036;50.834;4.718;2023-06-22T12:56:16;26.40;60.00
13928;DHT22;7036;50.834;4.718;2023-06-22T12:58:43;26.40;60.00
13928;DHT22;7036;50.834;4.718;2023-06-22T13:01:10;26.40;60.00
13928;DHT22;7036;50.834;4.718;2023-06-22T13:03:37;26.40;60.20
13928;DHT22;7036;50.834;4.718;2023-06-22T13:06:04;26.40;60.10
13928;DHT22;7036;50.834;4.718;2023-06-22T13:08:31;26.40;60.20
13928;DHT22;7036;50.834;4.718;2023-06-22T13:10:58;26.40;60.30
13928;DHT22;7036;50.834;4.718;2023-06-22T13:13:25;26.40;60.40
13928;DHT22;7036;50.834;4.718;2023-06-22T13:15:52;26.40;60.30
13928;DHT22;7036;50.834;4.718;2023-06-22T13:18:19;26.40;60.40
13928;DHT22;7036;50.834;4.718;2023-06-22T13:20:46;26.40;60.50
13928;DHT22;7036;50.834;4.718;2023-06-22T13:23:13;26.40;60.40
13928;DHT22;7036;50.834;4.718;2023-06-22T13:25:40;26.40;61.20
13928;DHT22;7036;50.834;4.718;2023-06-22T13:28:07;26.40;60.40
13928;DHT22;7036;50.834;4.718;2023-06-22T13:30:34;26.40;60.30
13928;DHT22;7036;50.834;4.718;2023-06-22T13:33:00;26.40;60.40
13928;DHT22;7036;50.834;4.718;2023-06-22T13:35:27;26.10;67.40
13928;DHT22;7036;50.834;4.718;2023-06-22T13:37:54;26.20;65.40
13928;DHT22;7036;50.834;4.718;2023-06-22T13:40:21;26.40;60.00
13928;DHT22;7036;50.834;4.718;2023-06-22T13:42:48;26.40;60.10
13928;DHT22;7036;50.834;4.718;2023-06-22T13:45:15;26.40;59.80
13928;DHT22;7036;50.834;4.718;2023-06-22T13:47:42;26.60;61.90
13928;DHT22;7036;50.834;4.718;2023-06-22T13:50:09;26.50;63.40
13928;DHT22;7036;50.834;4.718;2023-06-22T13:52:36;26.50;59.70
13928;DHT22;7036;50.834;4.718;2023-06-22T13:55:03;26.50;59.60
13928;DHT22;7036;50.834;4.718;2023-06-22T13:57:30;26.50;59.60
13928;DHT22;7036;50.834;4.718;2023-06-22T13:59:57;26.50;59.50
13928;DHT22;7036;50.834;4.718;2023-06-22T14:02:25;26.50;59.60
13928;DHT22;7036;50.834;4.718;2023-06-22T14:04:51;26.50;59.50
13928;DHT22;7036;50.834;4.718;2023-06-22T14:07:17;26.50;59.50
13928;DHT22;7036;50.834;4.718;2023-06-22T14:09:44;26.40;59.80
13928;DHT22;7036;50.834;4.718;2023-06-22T14:12:11;26.50;61.40
13928;DHT22;7036;50.834;4.718;2023-06-22T14:14:38;26.50;64.40
13928;DHT22;7036;50.834;4.718;2023-06-22T14:17:05;26.50;66.70
13928;DHT22;7036;50.834;4.718;2023-06-22T14:19:32;26.00;62.30
13928;DHT22;7036;50.834;4.718;2023-06-22T14:21:59;26.50;59.30
13928;DHT22;7036;50.834;4.718;2023-06-22T14:24:26;26.50;59.20
13928;DHT22;7036;50.834;4.718;2023-06-22T14:26:54;26.50;59.20
13928;DHT22;7036;50.834;4.718;2023-06-22T14:29:20;26.50;59.20
13928;DHT22;7036;50.834;4.718;2023-06-22T14:31:47;26.50;59.20
13928;DHT22;7036;50.834;4.718;2023-06-22T14:34:14;26.50;59.20
13928;DHT22;7036;50.834;4.718;2023-06-22T14:36:42;26.50;59.10
13928;DHT22;7036;50.834;4.718;2023-06-22T14:39:08;26.50;59.10
13928;DHT22;7036;50.834;4.718;2023-06-22T14:41:35;26.50;59.10
13928;DHT22;7036;50.834;4.718;2023-06-22T14:44:01;26.50;59.70
13928;DHT22;7036;50.834;4.718;2023-06-22T14:46:28;26.50;59.00
13928;DHT22;7036;50.834;4.718;2023-06-22T14:48:55;26.20;64.50
13928;DHT22;7036;50.834;4.718;2023-06-22T14:51:22;26.50;60.00
13928;DHT22;7036;50.834;4.718;2023-06-22T14:53:49;26.50;59.10
13928;DHT22;7036;50.834;4.718;2023-06-22T14:56:16;26.50;59.00
13928;DHT22;7036;50.834;4.718;2023-06-22T14:58:44;26.50;59.90
13928;DHT22;7036;50.834;4.718;2023-06-22T15:01:16;26.50;59.30
13928;DHT22;7036;50.834;4.718;2023-06-22T15:03:40;26.50;59.20
13928;DHT22;7036;50.834;4.718;2023-06-22T15:06:08;26.50;59.30
13928;DHT22;7036;50.834;4.718;2023-06-22T15:08:36;26.50;59.20
13928;DHT22;7036;50.834;4.718;2023-06-22T15:11:01;26.50;59.40
13928;DHT22;7036;50.834;4.718;2023-06-22T15:13:30;26.50;59.60
13928;DHT22;7036;50.834;4.718;2023-06-22T15:15:55;26.50;59.60
13928;DHT22;7036;50.834;4.718;2023-06-22T15:18:22;26.50;59.70
13928;DHT22;7036;50.834;4.718;2023-06-22T15:20:49;26.50;59.70
13928;DHT22;7036;50.834;4.718;2023-06-22T15:23:16;26.50;60.00
13928;DHT22;7036;50.834;4.718;2023-06-22T15:25:43;26.50;59.90
13928;DHT22;7036;50.834;4.718;2023-06-22T15:28:11;26.50;59.90
13928;DHT22;7036;50.834;4.718;2023-06-22T15:30:37;26.60;59.90
13928;DHT22;7036;50.834;4.718;2023-06-22T15:33:04;26.60;59.90
13928;DHT22;7036;50.834;4.718;2023-06-22T15:35:31;26.60;59.90
13928;DHT22;7036;50.834;4.718;2023-06-22T15:37:58;26.60;59.80
13928;DHT22;7036;50.834;4.718;2023-06-22T15:40:25;26.60;59.90
13928;DHT22;7036;50.834;4.718;2023-06-22T15:42:52;26.60;60.00
13928;DHT22;7036;50.834;4.718;2023-06-22T15:45:19;26.60;60.00